Time;durP1;ratioP1;P1;durP2;ratioP2;P2;SDS_P1;SDS_P2;PMS_P1;PMS_P2;Temp;Humidity;BMP_temperature;BMP_pressure;BME280_temperature;BME280_humidity;BME280_pressure;Samples;Min_cycle;Max_cycle;Signal;HPM_P1;HPM_P2
2021/08/04 00:00:01;;;;;;;8.21;6.99;;;;;;;16.05;64.94;99942.70;365155;146;860023;-59
2021/08/04 00:01:03;;;;;;;8.81;7.05;;;;;;;16.04;64.82;99942.76;356481;148;864948;-59
2021/08/04 00:02:04;;;;;;;10.83;7.06;;;;;;;16.01;64.76;99948.91;361001;145;865080;-59
2021/08/04 00:03:06;;;;;;;10.09;7.54;;;;;;;15.97;64.93;99949.91;358443;145;864960;-59
2021/08/04 00:04:09;;;;;;;10.69;7.52;;;;;;;15.97;64.93;99949.91;358605;148;864920;-59
2021/08/04 00:05:11;;;;;;;7.58;6.44;;;;;;;15.90;65.07;99948.39;359014;145;859589;-59
2021/08/04 00:06:15;;;;;;;7.61;6.18;;;;;;;15.88;65.39;99955.41;357296;148;865146;-59
2021/08/04 00:07:17;;;;;;;7.12;5.87;;;;;;;15.86;65.34;99954.56;362411;145;858677;-58
2021/08/04 00:08:18;;;;;;;6.77;6.05;;;;;;;15.87;65.59;99954.54;361480;145;865275;-59
2021/08/04 00:09:20;;;;;;;7.04;5.60;;;;;;;15.88;65.50;99951.03;359551;145;857444;-58
2021/08/04 00:10:22;;;;;;;6.58;5.58;;;;;;;15.88;65.38;99951.03;359457;145;865023;-59
2021/08/04 00:11:24;;;;;;;5.96;5.29;;;;;;;15.91;65.29;99950.97;359191;145;857204;-58
2021/08/04 00:12:26;;;;;;;6.13;5.55;;;;;;;15.94;64.82;99955.23;361000;148;864766;-58
2021/08/04 00:13:28;;;;;;;8.21;5.53;;;;;;;15.91;64.52;99950.97;358856;147;857221;-59
2021/08/04 00:14:30;;;;;;;7.29;6.34;;;;;;;15.87;64.54;99964.98;359376;145;864838;-58
2021/08/04 00:15:31;;;;;;;8.23;6.41;;;;;;;15.82;64.64;99958.17;358362;146;864707;-58
2021/08/04 00:16:35;;;;;;;9.53;6.44;;;;;;;15.76;64.90;99960.06;356603;148;857307;-59
2021/08/04 00:17:38;;;;;;;9.33;6.82;;;;;;;15.73;64.98;99961.89;358914;145;857690;-59
2021/08/04 00:18:40;;;;;;;8.29;5.96;;;;;;;15.72;65.06;99966.27;359846;145;857284;-59
2021/08/04 00:19:41;;;;;;;7.94;6.28;;;;;;;15.76;64.91;99964.41;368748;145;859030;-58
2021/08/04 00:20:44;;;;;;;9.61;6.63;;;;;;;15.80;64.62;99966.03;363355;145;865584;-59
2021/08/04 00:21:46;;;;;;;10.04;6.50;;;;;;;15.85;64.32;99969.36;357299;147;857268;-59
2021/08/04 00:22:48;;;;;;;8.99;6.64;;;;;;;15.86;64.11;99971.08;356042;151;864821;-59
2021/08/04 00:23:50;;;;;;;6.89;5.83;;;;;;;15.87;63.96;99970.20;357695;146;864862;-59
2021/08/04 00:24:51;;;;;;;8.37;6.88;;;;;;;15.84;63.79;99965.05;357974;146;866184;-60
2021/08/04 00:25:53;;;;;;;8.06;7.07;;;;;;;15.81;63.74;99967.74;359740;145;858108;-59
2021/08/04 00:26:57;;;;;;;10.29;6.95;;;;;;;15.76;64.00;99961.80;358449;149;865183;-58
2021/08/04 00:27:58;;;;;;;12.51;7.41;;;;;;;15.71;63.86;99963.69;359466;146;858928;-59
2021/08/04 00:29:00;;;;;;;9.23;7.12;;;;;;;15.68;63.93;99963.78;356086;147;865020;-59
2021/08/04 00:30:03;;;;;;;8.91;6.11;;;;;;;15.65;64.26;99966.48;363756;147;865107;-59
2021/08/04 00:31:05;;;;;;;10.26;6.72;;;;;;;15.67;64.52;99970.77;357703;146;859372;-59
2021/08/04 00:32:07;;;;;;;10.14;7.09;;;;;;;15.67;64.52;99970.77;360207;145;857267;-59
2021/08/04 00:33:09;;;;;;;8.80;6.87;;;;;;;15.68;64.45;99966.39;362360;147;866084;-59
2021/08/04 00:34:11;;;;;;;9.59;7.59;;;;;;;15.66;64.33;99969.06;360706;148;857687;-59
2021/08/04 00:35:12;;;;;;;9.99;7.12;;;;;;;15.66;64.33;99969.06;358810;145;866057;-59
2021/08/04 00:36:14;;;;;;;9.39;6.61;;;;;;;;;;357267;148;865445;-59
2021/08/04 00:37:16;;;;;;;10.69;7.49;;;;;;;;;;356159;148;857240;-59
2021/08/04 00:38:19;;;;;;;8.17;7.30;;;;;;;;;;357762;147;859043;-58
2021/08/04 00:39:21;;;;;;;8.31;6.83;;;;;;;;;;358113;147;865820;-58
2021/08/04 00:40:23;;;;;;;9.35;7.10;;;;;;;;;;359962;147;864852;-58
2021/08/04 00:41:24;;;;;;;7.57;6.49;;;;;;;;;;357916;145;858965;-58
2021/08/04 00:42:26;;;;;;;8.12;6.52;;;;;;;;;;360981;147;858221;-58
2021/08/04 00:43:28;;;;;;;7.79;6.94;;;;;;;;;;358744;147;857754;-58
2021/08/04 00:44:29;;;;;;;7.61;6.31;;;;;;;;;;358895;148;859378;-58
2021/08/04 00:45:31;;;;;;;9.17;6.89;;;;;;;;;;359819;146;858204;-59
2021/08/04 00:46:35;;;;;;;7.77;6.38;;;;;;;;;;360740;145;857256;-59
2021/08/04 00:47:36;;;;;;;7.11;6.37;;;;;;;;;;358393;148;857280;-59
2021/08/04 00:48:38;;;;;;;7.43;5.96;;;;;;;;;;360304;145;858760;-59
2021/08/04 00:49:39;;;;;;;6.96;6.16;;;;;;;;;;362622;145;857008;-59
2021/08/04 00:50:42;;;;;;;7.86;6.01;;;;;;;;;;357489;147;857303;-58
2021/08/04 00:51:43;;;;;;;6.63;5.69;;;;;;;;;;358236;148;858026;-58
2021/08/04 00:52:45;;;;;;;6.77;5.82;;;;;;;;;;361627;145;859231;-59
2021/08/04 00:53:47;;;;;;;6.59;5.88;;;;;;;;;;358893;145;858630;-59
2021/08/04 00:54:48;;;;;;;7.25;5.89;;;;;;;;;;360833;145;858435;-59
2021/08/04 00:55:50;;;;;;;7.17;5.94;;;;;;;;;;358160;147;857246;-59
2021/08/04 00:56:52;;;;;;;9.54;6.22;;;;;;;;;;358343;145;857274;-59
2021/08/04 00:57:53;;;;;;;7.24;6.24;;;;;;;;;;360647;148;858091;-58
2021/08/04 00:58:55;;;;;;;7.41;6.05;;;;;;;;;;358868;147;857256;-59
2021/08/04 00:59:57;;;;;;;9.56;6.41;;;;;;;;;;363332;145;857297;-59
2021/08/04 01:01:17;;;;;;;7.01;5.72;;;;;;;;;;364374;145;857299;-59
2021/08/04 01:02:20;;;;;;;8.62;6.36;;;;;;;;;;356161;147;865110;-58
2021/08/04 01:03:22;;;;;;;7.78;6.59;;;;;;;;;;360228;148;864912;-59
2021/08/04 01:04:30;;;;;;;8.66;5.96;;;;;;;;;;361783;145;858796;-59
2021/08/04 01:05:33;;;;;;;6.67;5.63;;;;;;;;;;358461;147;858089;-59
2021/08/04 01:06:38;;;;;;;12.24;6.59;;;;;;;;;;357758;145;859585;-58
2021/08/04 01:07:41;;;;;;;8.93;5.96;;;;;;;;;;353682;149;857314;-59
2021/08/04 01:08:43;;;;;;;7.79;6.17;;;;;;;;;;357654;148;859007;-59
2021/08/04 01:09:47;;;;;;;8.33;7.19;;;;;;;;;;366463;145;857337;-59
2021/08/04 01:10:50;;;;;;;7.79;6.08;;;;;;;;;;369439;145;859019;-59
2021/08/04 01:11:54;;;;;;;8.27;6.79;;;;;;;;;;360039;145;857227;-59
2021/08/04 01:13:10;;;;;;;10.86;7.03;;;;;;;;;;357333;147;857142;-58
2021/08/04 01:14:12;;;;;;;10.79;6.98;;;;;;;;;;360817;147;864937;-59
2021/08/04 01:15:14;;;;;;;7.49;6.39;;;;;;;;;;364446;145;857193;-59
2021/08/04 01:16:18;;;;;;;7.78;6.25;;;;;;;;;;359338;145;858115;-59
2021/08/04 01:17:19;;;;;;;6.94;5.93;;;;;;;;;;356613;147;857231;-59
2021/08/04 01:18:22;;;;;;;8.14;6.35;;;;;;;;;;365105;145;864713;-59
2021/08/04 01:19:42;;;;;;;9.40;6.97;;;;;;;;;;360811;145;858593;-59
2021/08/04 01:20:45;;;;;;;11.97;7.09;;;;;;;;;;359385;148;865069;-60
2021/08/04 01:21:48;;;;;;;8.89;6.78;;;;;;;;;;358853;148;857989;-59
2021/08/04 01:22:57;;;;;;;7.90;6.66;;;;;;;;;;358032;147;859007;-59
2021/08/04 01:24:07;;;;;;;8.92;6.72;;;;;;;;;;358605;147;866725;-59
2021/08/04 01:25:12;;;;;;;10.41;7.10;;;;;;;;;;360977;148;859403;-59
2021/08/04 01:26:22;;;;;;;9.59;6.71;;;;;;;;;;359415;147;857260;-59
2021/08/04 01:27:24;;;;;;;8.74;6.64;;;;;;;;;;359248;147;859259;-59
2021/08/04 01:28:27;;;;;;;8.81;5.88;;;;;;;;;;362480;148;858543;-59
2021/08/04 01:29:29;;;;;;;7.74;6.47;;;;;;;;;;360915;145;857202;-59
2021/08/04 01:30:31;;;;;;;8.43;6.98;;;;;;;;;;360416;145;857734;-60
2021/08/04 01:31:32;;;;;;;8.65;6.92;;;;;;;;;;360715;147;857324;-59
2021/08/04 01:32:34;;;;;;;9.49;6.36;;;;;;;;;;361814;148;859481;-60
2021/08/04 01:33:36;;;;;;;9.72;7.34;;;;;;;;;;360804;146;859071;-60
2021/08/04 01:34:38;;;;;;;8.61;7.13;;;;;;;;;;359676;145;858196;-59
2021/08/04 01:35:40;;;;;;;7.70;6.92;;;;;;;;;;360845;148;858745;-59
2021/08/04 01:36:41;;;;;;;8.71;6.85;;;;;;;;;;362660;147;857392;-59
2021/08/04 01:37:43;;;;;;;9.61;6.62;;;;;;;;;;357351;147;857214;-59
2021/08/04 01:38:45;;;;;;;8.76;6.93;;;;;;;;;;362376;145;857037;-60
2021/08/04 01:39:46;;;;;;;9.95;7.26;;;;;;;;;;361978;148;866601;-58
2021/08/04 01:40:49;;;;;;;8.77;7.07;;;;;;;;;;358457;145;860756;-60
2021/08/04 01:41:51;;;;;;;7.52;6.80;;;;;;;;;;359630;145;859159;-60
2021/08/04 01:42:52;;;;;;;8.17;6.72;;;;;;;;;;361538;145;858964;-59
2021/08/04 01:43:54;;;;;;;7.65;6.34;;;;;;;;;;360773;149;857853;-58
2021/08/04 01:44:55;;;;;;;8.17;6.12;;;;;;;;;;357820;148;857249;-59
2021/08/04 01:45:57;;;;;;;8.05;5.96;;;;;;;;;;358595;149;857382;-59
2021/08/04 01:47:00;;;;;;;8.31;6.46;;;;;;;;;;359069;149;857226;-59
2021/08/04 01:48:02;;;;;;;7.22;5.65;;;;;;;;;;357214;149;857315;-58
2021/08/04 01:49:03;;;;;;;9.42;6.54;;;;;;;;;;358713;146;866536;-58
2021/08/04 01:50:06;;;;;;;12.53;7.13;;;;;;;;;;362617;146;865126;-60
2021/08/04 01:51:09;;;;;;;8.61;6.43;;;;;;;;;;365759;146;860680;-59
2021/08/04 01:52:10;;;;;;;6.76;6.06;;;;;;;;;;359945;146;860254;-59
2021/08/04 01:53:12;;;;;;;6.36;5.75;;;;;;;;;;357076;146;857247;-59
2021/08/04 01:54:13;;;;;;;7.64;6.36;;;;;;;;;;358979;149;857188;-60
2021/08/04 01:55:15;;;;;;;6.36;5.71;;;;;;;;;;356760;146;857330;-58
2021/08/04 01:56:17;;;;;;;11.07;6.63;;;;;;;;;;358053;147;857237;-59
2021/08/04 01:57:19;;;;;;;8.69;6.07;;;;;;;;;;360675;149;857776;-58
2021/08/04 01:58:20;;;;;;;10.55;6.11;;;;;;;;;;359368;149;857135;-58
2021/08/04 01:59:22;;;;;;;10.41;6.11;;;;;;;;;;360047;146;857248;-58
2021/08/04 02:00:25;;;;;;;8.89;6.36;;;;;;;;;;357537;149;857322;-58
2021/08/04 02:01:28;;;;;;;15.89;6.31;;;;;;;;;;357144;149;864985;-58
2021/08/04 02:02:29;;;;;;;15.41;5.86;;;;;;;;;;359233;146;864926;-59
2021/08/04 02:03:31;;;;;;;8.91;5.92;;;;;;;;;;356815;147;857156;-59
2021/08/04 02:04:32;;;;;;;9.26;5.99;;;;;;;;;;358934;149;857222;-59
2021/08/04 02:05:34;;;;;;;9.99;5.96;;;;;;;;;;359251;149;859054;-59
2021/08/04 02:06:39;;;;;;;8.94;5.86;;;;;;;;;;360012;146;859140;-59
2021/08/04 02:07:45;;;;;;;9.59;5.97;;;;;;;;;;357256;146;856684;-59
2021/08/04 02:08:58;;;;;;;6.82;5.54;;;;;;;;;;361148;146;857072;-60
2021/08/04 02:10:00;;;;;;;12.61;6.13;;;;;;;;;;354929;148;857275;-59
2021/08/04 02:11:09;;;;;;;6.98;5.33;;;;;;;;;;354740;150;857785;-59
2021/08/04 02:12:11;;;;;;;8.49;5.98;;;;;;;;;;356152;149;858358;-59
2021/08/04 02:13:14;;;;;;;8.81;5.45;;;;;;;;;;359103;149;857158;-59
2021/08/04 02:14:17;;;;;;;7.14;5.60;;;;;;;;;;357666;147;859216;-59
2021/08/04 02:15:19;;;;;;;11.53;6.29;;;;;;;;;;358623;149;859017;-59
2021/08/04 02:16:23;;;;;;;8.15;5.73;;;;;;;;;;356876;149;857029;-59
2021/08/04 02:17:27;;;;;;;7.69;5.54;;;;;;;;;;357386;146;858080;-59
2021/08/04 02:18:29;;;;;;;9.51;6.35;;;;;;;;;;362429;146;857191;-59
2021/08/04 02:19:50;;;;;;;7.25;5.73;;;;;;;;;;358028;149;857790;-59
2021/08/04 02:20:52;;;;;;;7.15;5.83;;;;;;;;;;358631;149;857183;-59
2021/08/04 02:21:55;;;;;;;7.46;6.17;;;;;;;;;;356465;146;857105;-59
2021/08/04 02:22:57;;;;;;;5.70;5.10;;;;;;;;;;358761;149;858691;-59
2021/08/04 02:23:59;;;;;;;6.89;5.85;;;;;;;;;;357983;149;857727;-59
2021/08/04 02:25:12;;;;;;;9.29;6.32;;;;;;;;;;357972;148;857252;-58
2021/08/04 02:26:15;;;;;;;8.17;6.09;;;;;;;;;;357625;149;859688;-59
2021/08/04 02:27:16;;;;;;;7.37;6.36;;;;;;;;;;357131;148;857963;-59
2021/08/04 02:28:19;;;;;;;8.65;6.30;;;;;;;;;;354655;146;857182;-59
2021/08/04 02:29:21;;;;;;;9.91;6.27;;;;;;;;;;359196;146;857725;-59
2021/08/04 02:30:23;;;;;;;8.83;6.43;;;;;;;;;;359285;149;864882;-59
2021/08/04 02:31:25;;;;;;;9.09;6.25;;;;;;;;;;355831;149;857783;-59
2021/08/04 02:32:27;;;;;;;8.08;6.34;;;;;;;;;;359728;146;865069;-59
2021/08/04 02:33:28;;;;;;;7.64;6.08;;;;;;;;;;356780;149;857268;-58
2021/08/04 02:34:30;;;;;;;7.73;6.47;;;;;;;;;;353851;150;857147;-58
2021/08/04 02:35:31;;;;;;;9.29;6.69;;;;;;;;;;358663;148;858912;-59
2021/08/04 02:36:34;;;;;;;7.01;6.06;;;;;;;;;;358519;148;858219;-59
2021/08/04 02:37:35;;;;;;;9.42;6.04;;;;;;;;;;357152;149;859406;-59
2021/08/04 02:38:37;;;;;;;8.49;6.28;;;;;;;;;;356946;148;865604;-59
2021/08/04 02:39:38;;;;;;;9.96;6.18;;;;;;;;;;356172;148;860298;-58
2021/08/04 02:40:41;;;;;;;7.77;6.00;;;;;;;;;;360646;149;859272;-59
2021/08/04 02:41:43;;;;;;;8.92;5.97;;;;;;;;;;359459;148;865605;-59
2021/08/04 02:42:44;;;;;;;10.04;6.36;;;;;;;;;;355790;147;864871;-59
2021/08/04 02:43:46;;;;;;;10.16;7.63;;;;;;;;;;361961;145;857186;-60
2021/08/04 02:44:47;;;;;;;8.17;5.78;;;;;;;;;;362188;146;864889;-59
2021/08/04 02:45:49;;;;;;;10.41;5.96;;;;;;;;;;361471;147;857111;-60
2021/08/04 02:46:52;;;;;;;7.59;5.23;;;;;;;;;;361299;145;857692;-58
2021/08/04 02:47:54;;;;;;;8.37;6.17;;;;;;;;;;359251;146;857215;-60
2021/08/04 02:48:56;;;;;;;6.98;5.50;;;;;;;;;;360059;148;859813;-59
2021/08/04 02:49:58;;;;;;;7.21;6.03;;;;;;;;;;359615;147;859588;-60
2021/08/04 02:51:04;;;;;;;10.25;5.76;;;;;;;;;;358194;147;857343;-59
2021/08/04 02:52:06;;;;;;;6.62;5.62;;;;;;;;;;356497;146;859953;-59
2021/08/04 02:53:07;;;;;;;6.18;5.39;;;;;;;;;;357723;147;858890;-59
2021/08/04 02:54:09;;;;;;;6.26;5.35;;;;;;;;;;358885;146;858166;-59
2021/08/04 02:55:11;;;;;;;5.46;4.53;;;;;;;;;;358294;146;866121;-61
2021/08/04 02:56:12;;;;;;;7.62;5.59;;;;;;;;;;356962;146;865304;-59
2021/08/04 02:57:14;;;;;;;6.12;5.16;;;;;;;;;;358430;145;859640;-59
2021/08/04 02:58:16;;;;;;;7.03;4.99;;;;;;;;;;357608;147;858236;-59
2021/08/04 02:59:17;;;;;;;9.42;5.51;;;;;;;;;;356315;148;858143;-59
2021/08/04 03:00:19;;;;;;;6.63;5.41;;;;;;;;;;356563;147;857184;-59
2021/08/04 03:01:21;;;;;;;7.27;5.42;;;;;;;;;;360240;145;857214;-59
2021/08/04 03:02:22;;;;;;;6.94;5.58;;;;;;;;;;356883;147;857181;-59
2021/08/04 03:03:24;;;;;;;7.31;5.24;;;;;;;;;;356558;148;864723;-59
2021/08/04 03:04:26;;;;;;;10.13;6.09;;;;;;;;;;358421;148;857249;-59
2021/08/04 03:05:28;;;;;;;7.61;5.55;;;;;;;;;;360037;145;857294;-59
2021/08/04 03:06:31;;;;;;;7.01;5.32;;;;;;;;;;357455;146;859113;-60
2021/08/04 03:07:32;;;;;;;8.05;4.83;;;;;;;;;;359845;146;859106;-59
2021/08/04 03:08:34;;;;;;;6.57;4.64;;;;;;;;;;357130;147;860718;-59
2021/08/04 03:09:35;;;;;;;8.67;5.31;;;;;;;;;;359581;147;859989;-59
2021/08/04 03:10:37;;;;;;;6.95;5.23;;;;;;;;;;358687;146;859404;-59
2021/08/04 03:11:39;;;;;;;7.06;4.97;;;;;;;;;;358215;147;857257;-59
2021/08/04 03:12:41;;;;;;;7.25;4.99;;;;;;;;;;358100;146;866286;-59
2021/08/04 03:13:42;;;;;;;6.56;4.87;;;;;;;;;;362253;148;858835;-59
2021/08/04 03:14:44;;;;;;;5.79;5.04;;;;;;;;;;359770;147;857841;-58
2021/08/04 03:15:45;;;;;;;4.86;4.41;;;;;;;;;;358890;148;857620;-59
2021/08/04 03:16:48;;;;;;;5.12;4.53;;;;;;;;;;359068;146;857563;-59
2021/08/04 03:17:50;;;;;;;5.25;4.00;;;;;;;;;;361363;146;859179;-59
2021/08/04 03:18:52;;;;;;;5.11;4.61;;;;;;;;;;358877;146;857215;-58
2021/08/04 03:19:53;;;;;;;6.22;4.48;;;;;;;;;;359658;147;864755;-58
2021/08/04 03:20:57;;;;;;;5.39;4.58;;;;;;;;;;356174;146;857298;-59
2021/08/04 03:21:59;;;;;;;6.19;4.19;;;;;;;;;;359776;146;857241;-58
2021/08/04 03:23:00;;;;;;;5.63;4.75;;;;;;;;;;357504;146;857189;-59
2021/08/04 03:24:02;;;;;;;6.49;4.40;;;;;;;;;;359131;146;865634;-58
2021/08/04 03:25:04;;;;;;;7.26;5.04;;;;;;;;;;361093;146;859500;-59
2021/08/04 03:26:06;;;;;;;5.83;4.83;;;;;;;;;;359558;145;857307;-58
2021/08/04 03:27:08;;;;;;;7.69;4.74;;;;;;;;;;359366;146;858864;-58
2021/08/04 03:28:09;;;;;;;10.92;4.85;;;;;;;;;;360306;148;857124;-59
2021/08/04 03:29:11;;;;;;;10.44;4.95;;;;;;;;;;360379;146;857304;-59
2021/08/04 03:30:13;;;;;;;9.33;5.37;;;;;;;;;;359030;147;857210;-58
2021/08/04 03:31:15;;;;;;;7.76;5.49;;;;;;;;;;361562;146;857079;-59
2021/08/04 03:32:16;;;;;;;5.86;5.01;;;;;;;;;;360794;148;857232;-62
2021/08/04 03:33:18;;;;;;;7.40;5.36;;;;;;;;;;362554;145;859860;-62
2021/08/04 03:34:20;;;;;;;6.21;4.99;;;;;;;;;;360244;147;864898;-63
2021/08/04 03:35:21;;;;;;;7.78;5.41;;;;;;;;;;360982;148;857660;-62
2021/08/04 03:36:24;;;;;;;7.48;5.01;;;;;;;;;;359093;146;864910;-63
2021/08/04 03:37:25;;;;;;;7.89;5.06;;;;;;;;;;359665;145;857218;-65
2021/08/04 03:38:27;;;;;;;7.60;5.21;;;;;;;;;;362424;147;857180;-67
2021/08/04 03:39:28;;;;;;;9.41;5.27;;;;;;;;;;360833;148;857664;-67
2021/08/04 03:40:31;;;;;;;8.31;5.17;;;;;;;;;;361526;147;857351;-65
2021/08/04 03:41:33;;;;;;;9.51;5.35;;;;;;;;;;360844;147;857311;-63
2021/08/04 03:42:35;;;;;;;9.55;5.81;;;;;;;;;;359094;146;857453;-63
2021/08/04 03:43:36;;;;;;;13.14;6.30;;;;;;;;;;358946;146;859058;-61
2021/08/04 03:44:38;;;;;;;9.64;6.89;;;;;;;;;;359801;146;858340;-62
2021/08/04 03:45:39;;;;;;;9.30;6.37;;;;;;;;;;360701;146;864094;-66
2021/08/04 03:46:46;;;;;;;12.80;6.36;;;;;;;;;;357419;149;859433;-66
2021/08/04 03:47:46;;;;;;;8.89;6.22;;;;;;;;;;357552;147;858028;-67
2021/08/04 03:48:48;;;;;;;9.19;6.18;;;;;;;;;;359710;147;857335;-68
2021/08/04 03:49:49;;;;;;;14.23;6.29;;;;;;;;;;360019;148;861010;-67
2021/08/04 03:50:52;;;;;;;9.03;5.53;;;;;;;;;;358474;146;865780;-69
2021/08/04 03:51:54;;;;;;;7.04;5.48;;;;;;;;;;357003;147;859966;-67
2021/08/04 03:52:56;;;;;;;6.98;5.33;;;;;;;;;;357831;147;864915;-69
2021/08/04 03:53:57;;;;;;;10.74;5.66;;;;;;;;;;355788;149;857391;-68
2021/08/04 03:54:59;;;;;;;9.32;5.90;;;;;;;;;;358992;146;857868;-67
2021/08/04 03:56:00;;;;;;;11.99;6.14;;;;;;;;;;357142;147;857725;-64
2021/08/04 03:57:02;;;;;;;8.29;6.30;;;;;;;;;;358923;149;857247;-68
2021/08/04 03:58:04;;;;;;;9.89;6.20;;;;;;;;;;358114;148;857099;-68
2021/08/04 03:59:05;;;;;;;9.60;5.99;;;;;;;;;;356893;147;858318;-66
2021/08/04 04:00:08;;;;;;;10.11;6.00;;;;;;;;;;356163;147;857260;-67
2021/08/04 04:01:09;;;;;;;10.83;5.66;;;;;;;;;;357473;149;857166;-66
2021/08/04 04:02:11;;;;;;;11.95;5.89;;;;;;;;;;357048;146;857208;-65
2021/08/04 04:03:12;;;;;;;12.40;5.85;;;;;;;;;;358158;147;866697;-69
2021/08/04 04:04:14;;;;;;;9.13;6.14;;;;;;;;;;355323;149;865881;-67
2021/08/04 04:05:16;;;;;;;11.81;6.16;;;;;;;;;;357725;146;859639;-68
2021/08/04 04:06:18;;;;;;;11.72;6.36;;;;;;;;;;358520;147;857129;-65
2021/08/04 04:07:20;;;;;;;12.58;6.54;;;;;;;;;;358777;147;857188;-67
2021/08/04 04:08:21;;;;;;;10.36;6.86;;;;;;;;;;357421;146;864996;-68
2021/08/04 04:09:23;;;;;;;12.64;6.93;;;;;;;;;;357379;146;857281;-68
2021/08/04 04:10:25;;;;;;;9.38;6.61;;;;;;;;;;359721;146;859408;-67
2021/08/04 04:11:27;;;;;;;12.47;6.71;;;;;;;;;;358241;150;857750;-68
2021/08/04 04:12:29;;;;;;;13.25;6.66;;;;;;;;;;356851;149;859938;-67
2021/08/04 04:13:32;;;;;;;12.95;6.91;;;;;;;;;;356782;147;857399;-67
2021/08/04 04:14:33;;;;;;;14.41;7.10;;;;;;;;;;358575;149;859326;-68
2021/08/04 04:15:35;;;;;;;9.88;6.48;;;;;;;;;;357283;149;859232;-67
2021/08/04 04:16:37;;;;;;;8.88;6.40;;;;;;;;;;359755;146;857298;-67
2021/08/04 04:17:38;;;;;;;9.37;6.37;;;;;;;;;;360373;146;857261;-67
2021/08/04 04:18:40;;;;;;;15.27;7.01;;;;;;;;;;355698;150;857833;-67
2021/08/04 04:19:42;;;;;;;12.55;7.02;;;;;;;;;;357148;149;857272;-67
2021/08/04 04:20:45;;;;;;;12.90;6.83;;;;;;;;;;356526;146;864852;-67
2021/08/04 04:21:47;;;;;;;9.97;7.24;;;;;;;;;;361357;147;857223;-68
2021/08/04 04:22:48;;;;;;;10.62;6.57;;;;;;;;;;358604;148;857261;-68
2021/08/04 04:23:50;;;;;;;9.72;6.14;;;;;;;;;;360452;146;857675;-70
2021/08/04 04:24:51;;;;;;;9.67;5.98;;;;;;;;;;359029;146;857238;-69
2021/08/04 04:25:53;;;;;;;12.37;6.67;;;;;;;;;;361552;149;858643;-68
2021/08/04 04:26:55;;;;;;;14.34;6.83;;;;;;;;;;357142;148;860723;-67
2021/08/04 04:27:57;;;;;;;12.72;6.29;;;;;;;;;;355675;147;859127;-68
2021/08/04 04:28:59;;;;;;;9.35;6.53;;;;;;;;;;360868;149;860346;-68
2021/08/04 04:30:01;;;;;;;12.78;6.98;;;;;;;;;;359358;149;858915;-68
2021/08/04 04:31:02;;;;;;;14.19;6.48;;;;;;;;;;357837;147;857767;-67
2021/08/04 04:32:04;;;;;;;13.17;6.19;;;;;;;;;;358677;146;858976;-68
2021/08/04 04:33:06;;;;;;;10.15;5.99;;;;;;;;;;361006;146;859901;-67
2021/08/04 04:34:08;;;;;;;9.86;6.19;;;;;;;;;;355644;146;858773;-69
2021/08/04 04:35:09;;;;;;;9.52;6.34;;;;;;;;;;357302;146;865025;-69
2021/08/04 04:36:12;;;;;;;12.41;7.12;;;;;;;;;;362621;147;857143;-68
2021/08/04 04:37:14;;;;;;;12.69;7.07;;;;;;;;;;359775;148;860313;-68
2021/08/04 04:38:16;;;;;;;13.04;6.39;;;;;;;;;;355420;148;857344;-67
2021/08/04 04:39:17;;;;;;;10.00;5.81;;;;;;;;;;357357;147;857234;-68
2021/08/04 04:40:20;;;;;;;14.46;6.68;;;;;;;;;;358242;150;857290;-68
2021/08/04 04:41:21;;;;;;;13.68;6.39;;;;;;;;;;360755;147;857197;-69
2021/08/04 04:42:23;;;;;;;12.65;6.31;;;;;;;;;;355295;146;865467;-68
2021/08/04 04:43:24;;;;;;;11.96;6.37;;;;;;;;;;359561;149;858780;-67
2021/08/04 04:44:26;;;;;;;16.29;6.84;;;;;;;;;;359460;148;860352;-69
2021/08/04 04:45:27;;;;;;;16.70;6.92;;;;;;;;;;358092;148;858936;-69
2021/08/04 04:46:30;;;;;;;11.00;6.15;;;;;;;;;;357849;147;858535;-68
2021/08/04 04:47:31;;;;;;;16.54;6.16;;;;;;;;;;350663;152;857190;-67
2021/08/04 04:48:33;;;;;;;17.16;6.71;;;;;;;;;;352156;151;860375;-66
2021/08/04 04:49:35;;;;;;;27.96;6.64;;;;;;;;;;351621;151;859174;-67
2021/08/04 04:50:37;;;;;;;14.71;6.52;;;;;;;;;;347711;151;857361;-67
2021/08/04 04:51:38;;;;;;;13.87;6.11;;;;;;;;;;347554;150;865364;-67
2021/08/04 04:52:42;;;;;;;15.50;6.07;;;;;;;;;;348709;153;858719;-66
2021/08/04 04:53:44;;;;;;;8.91;5.21;;;;;;;;;;353645;150;858657;-68
2021/08/04 04:54:45;;;;;;;9.02;5.50;;;;;;;;;;349480;154;857156;-67
2021/08/04 04:55:47;;;;;;;12.78;5.40;;;;;;;;;;348104;151;865847;-69
2021/08/04 04:56:49;;;;;;;16.89;6.06;;;;;;;;;;346933;152;858632;-68
2021/08/04 04:57:51;;;;;;;14.22;5.76;;;;;;;;;;354878;151;865852;-68
2021/08/04 04:58:54;;;;;;;9.19;5.72;;;;;;;;;;350241;150;865204;-68
2021/08/04 04:59:55;;;;;;;9.69;6.19;;;;;;;;;;345812;154;857237;-68
2021/08/04 05:00:57;;;;;;;10.89;5.81;;;;;;;;;;345236;152;866834;-61
2021/08/04 05:01:59;;;;;;;11.62;5.29;;;;;;;;;;342565;154;857291;-61
2021/08/04 05:03:00;;;;;;;11.59;5.86;;;;;;;;;;343305;152;864979;-66
2021/08/04 05:04:02;;;;;;;11.43;5.28;;;;;;;;;;343149;153;857383;-65
2021/08/04 05:05:04;;;;;;;12.19;5.40;;;;;;;;;;342788;154;857257;-67
2021/08/04 05:06:06;;;;;;;12.25;5.48;;;;;;;;;;345315;152;857730;-64
2021/08/04 05:07:07;;;;;;;10.80;5.37;;;;;;;;;;343878;154;865813;-63
2021/08/04 05:08:09;;;;;;;11.06;5.91;;;;;;;;;;345549;153;858906;-66
2021/08/04 05:09:11;;;;;;;11.52;6.05;;;;;;;;;;344991;154;859306;-65
2021/08/04 05:10:13;;;;;;;12.55;5.37;;;;;;;;;;345316;152;865609;-64
2021/08/04 05:11:14;;;;;;;11.24;5.35;;;;;;;;;;348995;150;860482;-64
2021/08/04 05:12:16;;;;;;;11.68;5.33;;;;;;;;;;353957;150;857257;-63
2021/08/04 05:13:18;;;;;;;8.82;5.76;;;;;;;;;;352370;150;857342;-63
2021/08/04 05:14:19;;;;;;;7.46;5.31;;;;;;;;;;349582;151;857264;-67
2021/08/04 05:15:21;;;;;;;9.04;5.56;;;;;;;;;;348842;150;857205;-66
2021/08/04 05:16:23;;;;;;;8.19;5.04;;;;;;;;;;348848;150;857210;-67
2021/08/04 05:17:25;;;;;;;10.62;5.31;;;;;;;;;;349967;150;862160;-66
2021/08/04 05:18:26;;;;;;;8.72;5.54;;;;;;;;;;350722;150;859381;-68
2021/08/04 05:19:28;;;;;;;10.69;5.71;;;;;;;;;;348117;152;857258;-66
2021/08/04 05:20:30;;;;;;;6.89;5.06;;;;;;;;;;349751;150;865193;-67
2021/08/04 05:21:31;;;;;;;12.64;5.51;;;;;;;;;;349805;151;865382;-66
2021/08/04 05:22:33;;;;;;;8.32;5.27;;;;;;;;;;351783;150;859860;-63
2021/08/04 05:23:35;;;;;;;11.64;5.27;;;;;;;;;;349600;150;858729;-65
2021/08/04 05:24:36;;;;;;;10.18;5.43;;;;;;;;;;348167;152;857937;-67
2021/08/04 05:25:38;;;;;;;9.83;6.14;;;;;;;;;;349847;150;857350;-65
2021/08/04 05:26:40;;;;;;;8.18;5.67;;;;;;;;;;348747;151;857344;-65
2021/08/04 05:27:42;;;;;;;13.43;5.69;;;;;;;;;;350692;150;864851;-66
2021/08/04 05:28:44;;;;;;;12.26;5.95;;;;;;;;;;349413;150;858888;-64
2021/08/04 05:29:45;;;;;;;8.30;5.38;;;;;;;;;;350578;150;858212;-68
2021/08/04 05:30:48;;;;;;;7.69;5.62;;;;;;;;;;349538;150;857313;-64
2021/08/04 05:31:49;;;;;;;9.74;5.84;;;;;;;;;;351392;150;866368;-63
2021/08/04 05:32:51;;;;;;;13.67;5.95;;;;;;;;;;351307;150;858997;-67
2021/08/04 05:33:53;;;;;;;8.46;5.79;;;;;;;;;;347576;150;857831;-67
2021/08/04 05:34:55;;;;;;;15.40;5.31;;;;;;;;;;348229;150;857329;-66
2021/08/04 05:35:56;;;;;;;12.45;5.56;;;;;;;;;;351559;149;866717;-66
2021/08/04 05:36:58;;;;;;;9.25;5.50;;;;;;;;;;350082;150;857405;-66
2021/08/04 05:37:59;;;;;;;11.72;5.81;;;;;;;;;;348178;150;858835;-66
2021/08/04 05:39:01;;;;;;;9.77;5.99;;;;;;;;;;350769;150;858970;-65
2021/08/04 05:40:03;;;;;;;7.49;5.40;;;;;;;;;;350682;150;858572;-67
2021/08/04 05:41:05;;;;;;;9.54;5.54;;;;;;;;;;351264;150;859196;-66
2021/08/04 05:42:07;;;;;;;8.26;5.48;;;;;;;;;;350824;150;857894;-65
2021/08/04 05:43:08;;;;;;;14.00;5.36;;;;;;;;;;351144;151;858965;-66
2021/08/04 05:44:10;;;;;;;19.53;5.64;;;;;;;;;;350117;150;857680;-66
2021/08/04 05:45:11;;;;;;;7.81;4.99;;;;;;;;;;353345;150;857460;-66
2021/08/04 05:46:15;;;;;;;12.19;6.33;;;;;;;;;;359517;147;857179;-65
2021/08/04 05:47:16;;;;;;;8.52;5.36;;;;;;;;;;359063;148;858792;-66
2021/08/04 05:48:18;;;;;;;10.33;5.47;;;;;;;;;;360049;147;857933;-66
2021/08/04 05:49:19;;;;;;;14.46;5.33;;;;;;;;;;359107;148;865019;-66
2021/08/04 05:50:21;;;;;;;10.86;5.03;;;;;;;;;;360504;146;857279;-67
2021/08/04 05:51:23;;;;;;;9.84;4.73;;;;;;;;;;356999;147;857114;-67
2021/08/04 05:52:25;;;;;;;11.16;5.14;;;;;;;;;;358984;146;857888;-64
2021/08/04 05:53:26;;;;;;;10.89;5.24;;;;;;;;;;360498;148;859046;-64
2021/08/04 05:54:28;;;;;;;11.26;4.60;;;;;;;;;;359270;147;857603;-64
2021/08/04 05:55:29;;;;;;;8.94;4.19;;;;;;;;;;358545;148;859106;-64
2021/08/04 05:56:32;;;;;;;7.65;4.20;;;;;;;;;;356936;146;859155;-65